Time;durP1;ratioP1;P1;durP2;ratioP2;P2;SDS_P1;SDS_P2;PMS_P1;PMS_P2;Temp;Humidity;BMP_temperature;BMP_pressure;BME280_temperature;BME280_humidity;BME280_pressure;Samples;Min_cycle;Max_cycle;Signal;HPM_P1;HPM_P2
2021/03/02 00:00:25;;;;;;;21.48;12.70;;;5.70;84.70;;;;;;2071391;28;20120;-80
2021/03/02 00:01:26;;;;;;;22.13;13.05;;;5.70;84.70;;;;;;2065230;28;20038;-80
2021/03/02 00:02:28;;;;;;;23.15;13.75;;;5.70;84.70;;;;;;2068786;28;20423;-81
2021/03/02 00:03:31;;;;;;;22.00;12.85;;;5.70;84.70;;;;;;2071247;28;20097;-80
2021/03/02 00:04:32;;;;;;;24.05;13.13;;;5.70;84.70;;;;;;2068796;28;20034;-81
2021/03/02 00:05:33;;;;;;;20.42;12.80;;;5.70;84.70;;;;;;2063878;28;20381;-81
2021/03/02 00:06:34;;;;;;;22.65;12.88;;;5.70;84.80;;;;;;2064295;28;20108;-81
2021/03/02 00:07:35;;;;;;;22.70;12.90;;;5.70;84.80;;;;;;2071454;28;20468;-80
2021/03/02 00:08:38;;;;;;;24.75;14.07;;;5.70;84.80;;;;;;2063071;28;20077;-80
2021/03/02 00:09:39;;;;;;;26.30;13.93;;;5.70;84.80;;;;;;2064353;28;20030;-81
2021/03/02 00:10:42;;;;;;;24.40;14.48;;;5.60;84.80;;;;;;2072385;28;20049;-81
2021/03/02 00:11:45;;;;;;;23.90;14.13;;;5.60;84.80;;;;;;2075943;28;20038;-80
2021/03/02 00:12:45;;;;;;;22.95;14.20;;;5.60;84.90;;;;;;2066054;28;20033;-80
2021/03/02 00:13:46;;;;;;;26.58;15.10;;;5.70;84.90;;;;;;2062451;28;20102;-81
2021/03/02 00:14:46;;;;;;;23.17;14.15;;;5.70;84.90;;;;;;2072257;28;20053;-82
2021/03/02 00:15:47;;;;;;;25.33;14.30;;;5.60;84.90;;;;;;2061465;28;20022;-80
2021/03/02 00:16:58;;;;;;;25.00;14.77;;;5.60;84.90;;;;;;2068716;28;20046;-80
2021/03/02 00:18:00;;;;;;;22.98;13.32;;;5.60;85.50;;;;;;2075104;28;20018;-80
2021/03/02 00:19:12;;;;;;;23.40;13.90;;;5.60;84.90;;;;;;2069009;28;20030;-80
2021/03/02 00:20:23;;;;;;;24.15;13.98;;;5.60;85.00;;;;;;2066505;28;20022;-80
2021/03/02 00:21:31;;;;;;;25.27;14.32;;;5.60;84.90;;;;;;2072308;28;20049;-80
2021/03/02 00:22:47;;;;;;;26.88;14.23;;;5.60;85.00;;;;;;2076107;28;20068;-81
2021/03/02 00:23:52;;;;;;;22.35;13.35;;;5.50;84.90;;;;;;2078262;28;20034;-80
2021/03/02 00:24:54;;;;;;;23.48;13.48;;;5.50;85.00;;;;;;2075827;28;20022;-80
2021/03/02 00:25:57;;;;;;;23.08;14.02;;;5.50;85.00;;;;;;2065189;28;20029;-81
2021/03/02 00:26:58;;;;;;;22.63;13.48;;;5.50;85.00;;;;;;2066677;28;20571;-80
2021/03/02 00:28:01;;;;;;;26.85;15.05;;;5.50;85.00;;;;;;2072391;28;20124;-81
2021/03/02 00:29:04;;;;;;;23.23;14.32;;;5.50;85.10;;;;;;2071646;28;20058;-80
2021/03/02 00:30:06;;;;;;;23.92;13.90;;;5.50;85.10;;;;;;2079860;28;20025;-80
2021/03/02 00:31:08;;;;;;;24.58;13.95;;;5.50;85.10;;;;;;2072270;28;20053;-80
2021/03/02 00:32:09;;;;;;;24.92;14.20;;;5.50;85.10;;;;;;2071253;28;20030;-80
2021/03/02 00:33:12;;;;;;;23.65;14.02;;;5.50;85.10;;;;;;2079004;28;20160;-80
2021/03/02 00:34:13;;;;;;;23.30;13.80;;;5.50;85.20;;;;;;2073099;28;20093;-80
2021/03/02 00:35:14;;;;;;;23.77;13.43;;;5.50;85.20;;;;;;2071619;28;20053;-80
2021/03/02 00:36:15;;;;;;;25.15;13.63;;;5.50;85.20;;;;;;2063824;28;20039;-80
2021/03/02 00:37:17;;;;;;;22.55;13.50;;;5.50;85.20;;;;;;2072404;28;20057;-79
2021/03/02 00:38:17;;;;;;;23.50;13.98;;;5.50;85.20;;;;;;2072538;28;20022;-80
2021/03/02 00:39:18;;;;;;;23.45;13.40;;;5.50;85.20;;;;;;2062971;28;20096;-80
2021/03/02 00:40:19;;;;;;;25.90;14.50;;;5.50;85.20;;;;;;2064628;28;20018;-80
2021/03/02 00:41:19;;;;;;;25.58;14.43;;;5.50;85.30;;;;;;2063345;28;20129;-80
2021/03/02 00:42:20;;;;;;;24.77;13.63;;;5.40;85.30;;;;;;2063093;28;20022;-80
2021/03/02 00:43:20;;;;;;;26.60;14.90;;;5.40;85.30;;;;;;2060318;28;20413;-79
2021/03/02 00:44:21;;;;;;;24.38;14.63;;;5.40;85.30;;;;;;2069615;28;20038;-80
2021/03/02 00:45:22;;;;;;;31.60;15.45;;;5.40;85.30;;;;;;2070620;28;20065;-80
2021/03/02 00:46:22;;;;;;;25.23;14.18;;;5.40;85.40;;;;;;2070579;28;20036;-80
2021/03/02 00:47:23;;;;;;;27.27;15.27;;;5.40;85.40;;;;;;2070651;28;20046;-80
2021/03/02 00:48:24;;;;;;;23.50;14.00;;;5.40;85.40;;;;;;2071892;28;20034;-80
2021/03/02 00:49:24;;;;;;;24.65;13.55;;;5.40;85.40;;;;;;2072522;28;20022;-80
2021/03/02 00:50:27;;;;;;;25.40;13.85;;;5.40;85.40;;;;;;2065069;28;20096;-80
2021/03/02 00:51:27;;;;;;;24.77;14.98;;;5.40;86.00;;;;;;2072710;28;20832;-81
2021/03/02 00:52:28;;;;;;;25.10;14.18;;;5.40;85.50;;;;;;2057522;28;20038;-81
2021/03/02 00:53:29;;;;;;;22.30;12.70;;;5.40;85.40;;;;;;2048692;28;20031;-80
2021/03/02 00:54:29;;;;;;;22.85;13.38;;;5.40;85.50;;;;;;2064865;28;20473;-80
2021/03/02 00:55:30;;;;;;;26.15;14.32;;;5.40;85.60;;;;;;2064801;28;20361;-80
2021/03/02 00:56:31;;;;;;;24.92;14.38;;;5.40;85.40;;;;;;2057597;28;20034;-80
2021/03/02 00:57:31;;;;;;;24.77;14.23;;;5.40;85.50;;;;;;2073295;28;20117;-80
2021/03/02 00:58:32;;;;;;;26.35;14.75;;;5.40;85.50;;;;;;2064767;28;20062;-80
2021/03/02 00:59:32;;;;;;;22.95;13.52;;;5.40;85.50;;;;;;2065785;28;20056;-81
2021/03/02 01:00:33;;;;;;;24.73;14.18;;;5.40;85.50;;;;;;2072266;28;20034;-80
2021/03/02 01:01:34;;;;;;;25.27;14.85;;;5.40;85.50;;;;;;2064607;28;20081;-81
2021/03/02 01:02:36;;;;;;;23.83;13.45;;;5.30;85.50;;;;;;2056589;28;20363;-81
2021/03/02 01:03:36;;;;;;;25.92;14.85;;;5.40;85.60;;;;;;2048496;28;20047;-81
2021/03/02 01:04:37;;;;;;;24.02;13.90;;;5.40;85.60;;;;;;2065290;28;20061;-81
2021/03/02 01:05:38;;;;;;;23.60;13.75;;;5.40;85.60;;;;;;2065446;28;20030;-81
2021/03/02 01:06:38;;;;;;;23.60;13.75;;;5.40;85.60;;;;;;2057332;28;20027;-81
2021/03/02 01:07:39;;;;;;;24.48;14.23;;;5.30;85.60;;;;;;2064974;28;20101;-81
2021/03/02 01:08:40;;;;;;;24.15;13.93;;;5.40;85.60;;;;;;2056994;28;20034;-81
2021/03/02 01:09:40;;;;;;;27.23;14.82;;;5.30;85.60;;;;;;2053375;28;20513;-81
2021/03/02 01:10:41;;;;;;;24.75;14.68;;;5.30;85.60;;;;;;2063776;28;20125;-81
2021/03/02 01:11:42;;;;;;;28.08;15.20;;;5.30;85.70;;;;;;2066000;28;20556;-80
2021/03/02 01:12:42;;;;;;;27.63;15.35;;;5.30;85.70;;;;;;2061472;28;20023;-81
2021/03/02 01:13:43;;;;;;;27.25;15.88;;;5.30;85.70;;;;;;2057495;28;20117;-81
2021/03/02 01:14:44;;;;;;;27.52;15.60;;;5.30;85.80;;;;;;2055951;28;20035;-80
2021/03/02 01:15:44;;;;;;;25.05;14.65;;;5.30;85.80;;;;;;2064999;28;20026;-81
2021/03/02 01:16:45;;;;;;;24.42;14.57;;;5.20;85.70;;;;;;2073863;28;20053;-80
2021/03/02 01:17:46;;;;;;;24.27;14.15;;;5.20;85.80;;;;;;2081087;28;20121;-80
2021/03/02 01:18:46;;;;;;;24.80;13.77;;;5.20;85.80;;;;;;2072736;28;20472;-81
2021/03/02 01:19:47;;;;;;;25.27;15.02;;;5.20;85.80;;;;;;2073257;28;20440;-80
2021/03/02 01:20:47;;;;;;;26.40;15.38;;;5.20;85.80;;;;;;2071630;28;20474;-80
2021/03/02 01:21:49;;;;;;;29.70;16.35;;;5.20;85.80;;;;;;2081320;28;20503;-81
2021/03/02 01:22:49;;;;;;;27.38;15.00;;;5.20;85.90;;;;;;2071496;28;20030;-81
2021/03/02 01:23:50;;;;;;;25.50;14.25;;;5.20;85.90;;;;;;2073380;28;20049;-80
2021/03/02 01:24:51;;;;;;;27.23;15.27;;;5.20;85.90;;;;;;2073007;28;20084;-80
2021/03/02 01:25:51;;;;;;;27.55;15.70;;;5.20;86.00;;;;;;2072871;28;20026;-81
2021/03/02 01:26:52;;;;;;;26.98;15.35;;;5.20;86.00;;;;;;2065020;28;20077;-80
2021/03/02 01:27:53;;;;;;;24.98;14.48;;;5.20;86.00;;;;;;2055639;28;20129;-80
2021/03/02 01:28:53;;;;;;;27.52;15.38;;;5.10;86.00;;;;;;2057201;28;20460;-80
2021/03/02 01:29:54;;;;;;;25.40;14.73;;;5.20;86.00;;;;;;2065545;28;20026;-80
2021/03/02 01:30:54;;;;;;;25.98;15.23;;;5.10;86.00;;;;;;2072583;28;20029;-80
2021/03/02 01:31:56;;;;;;;28.17;15.48;;;5.20;86.10;;;;;;2077500;28;20133;-80
2021/03/02 01:32:57;;;;;;;27.77;15.45;;;5.10;86.00;;;;;;2069514;28;20579;-80
2021/03/02 01:33:58;;;;;;;28.75;15.68;;;5.10;86.10;;;;;;2063477;28;20027;-80
2021/03/02 01:34:58;;;;;;;30.98;16.95;;;5.10;86.10;;;;;;2048234;28;20130;-80
2021/03/02 01:35:59;;;;;;;28.08;15.75;;;5.10;86.10;;;;;;2049280;28;20039;-80
2021/03/02 01:37:01;;;;;;;28.88;16.50;;;5.10;86.10;;;;;;2051966;28;20537;-80
2021/03/02 01:38:01;;;;;;;28.95;17.20;;;5.10;86.20;;;;;;2069412;28;20551;-80
2021/03/02 01:39:03;;;;;;;29.10;16.58;;;5.10;86.20;;;;;;2073563;28;20088;-81
2021/03/02 01:40:15;;;;;;;27.85;16.25;;;5.10;86.10;;;;;;2079801;28;20557;-81
2021/03/02 01:41:16;;;;;;;31.20;16.52;;;5.10;86.20;;;;;;2073344;28;20026;-81
2021/03/02 01:42:16;;;;;;;27.42;15.20;;;5.10;86.20;;;;;;2064957;28;20034;-81
2021/03/02 01:43:17;;;;;;;26.60;15.57;;;5.10;86.20;;;;;;2062931;28;20061;-80
2021/03/02 01:44:18;;;;;;;25.92;14.93;;;5.10;86.20;;;;;;2053802;28;20031;-81
2021/03/02 01:45:20;;;;;;;31.33;16.02;;;5.10;86.20;;;;;;2066210;28;20137;-81
2021/03/02 01:46:21;;;;;;;29.98;16.10;;;5.10;86.30;;;;;;2071962;28;20034;-81
2021/03/02 01:47:22;;;;;;;29.58;15.63;;;5.10;86.40;;;;;;2071838;28;20514;-80
2021/03/02 01:48:23;;;;;;;26.02;15.27;;;5.00;86.30;;;;;;2068053;28;20459;-80
2021/03/02 01:49:24;;;;;;;27.73;15.98;;;5.00;86.30;;;;;;2064707;28;20033;-81
2021/03/02 01:50:25;;;;;;;29.25;15.98;;;5.00;86.40;;;;;;2064883;28;20038;-81
2021/03/02 01:51:25;;;;;;;27.38;16.10;;;5.00;86.40;;;;;;2063656;28;20041;-81
2021/03/02 01:52:26;;;;;;;32.30;16.77;;;5.00;86.40;;;;;;2055893;28;20432;-81
2021/03/02 01:53:27;;;;;;;30.15;17.25;;;5.00;86.40;;;;;;2064507;28;20042;-80
2021/03/02 01:54:28;;;;;;;29.02;16.48;;;5.00;86.50;;;;;;2057228;28;20030;-80
2021/03/02 01:55:29;;;;;;;28.50;16.48;;;5.00;86.50;;;;;;2063248;28;20489;-81
2021/03/02 01:56:29;;;;;;;30.77;17.52;;;5.00;86.50;;;;;;2072908;28;20045;-80
2021/03/02 01:57:30;;;;;;;30.92;17.48;;;5.00;86.50;;;;;;2072996;28;20060;-81
2021/03/02 01:58:31;;;;;;;28.48;16.80;;;4.90;86.50;;;;;;2064977;28;20380;-81
2021/03/02 01:59:32;;;;;;;29.50;17.25;;;5.00;86.50;;;;;;2073328;28;20121;-81
2021/03/02 02:00:35;;;;;;;30.88;17.73;;;4.90;86.50;;;;;;2073000;28;20033;-81
2021/03/02 02:01:36;;;;;;;32.55;17.15;;;4.90;86.50;;;;;;2080246;28;20029;-81
2021/03/02 02:02:48;;;;;;;31.15;17.23;;;4.90;86.50;;;;;;2073413;28;20033;-81
2021/03/02 02:03:54;;;;;;;32.90;17.70;;;4.90;86.50;;;;;;2069605;28;20034;-81
2021/03/02 02:04:57;;;;;;;29.35;16.52;;;4.90;86.60;;;;;;2076073;28;20591;-81
2021/03/02 02:06:30;;;;;;;32.10;17.15;;;4.90;86.60;;;;;;2081506;28;20475;-81
2021/03/02 02:07:40;;;;;;;29.88;16.20;;;4.90;86.60;;;;;;2064824;28;20030;-80
2021/03/02 02:09:09;;;;;;;28.10;15.68;;;4.90;86.50;;;;;;2065337;28;20053;-81
2021/03/02 02:10:17;;;;;;;28.98;16.08;;;4.90;86.60;;;;;;2071333;28;20072;-81
2021/03/02 02:11:33;;;;;;;34.83;17.83;;;4.90;86.60;;;;;;2080118;28;20033;-81
2021/03/02 02:12:41;;;;;;;27.98;15.65;;;4.80;86.60;;;;;;2079220;28;20049;-80
2021/03/02 02:13:49;;;;;;;31.55;16.58;;;4.80;86.60;;;;;;2079272;28;20103;-81
2021/03/02 02:14:58;;;;;;;28.63;16.25;;;4.80;86.60;;;;;;2077484;28;20059;-81
2021/03/02 02:16:03;;;;;;;31.67;17.67;;;4.80;86.60;;;;;;2065342;28;20027;-81
2021/03/02 02:17:08;;;;;;;28.98;16.20;;;4.80;86.70;;;;;;2072893;28;20037;-81
2021/03/02 02:18:16;;;;;;;29.95;16.52;;;4.80;86.70;;;;;;2079622;28;20037;-81
2021/03/02 02:19:28;;;;;;;28.75;16.23;;;4.80;86.70;;;;;;2071344;28;20399;-80
2021/03/02 02:20:28;;;;;;;27.45;15.00;;;4.70;86.70;;;;;;2066018;28;20070;-81
2021/03/02 02:22:01;;;;;;;27.77;15.88;;;4.70;86.70;;;;;;2078494;28;20546;-81
2021/03/02 02:23:18;;;;;;;27.30;14.93;;;4.70;86.80;;;;;;2072568;28;20073;-80
2021/03/02 02:24:23;;;;;;;26.63;15.75;;;4.70;86.80;;;;;;2073383;28;20033;-81
2021/03/02 02:26:03;;;;;;;32.08;16.92;;;4.70;86.80;;;;;;2079888;28;20021;-80
2021/03/02 02:27:04;;;;;;;29.35;16.23;;;4.70;86.80;;;;;;2068547;28;20420;-81
2021/03/02 02:28:07;;;;;;;28.52;17.00;;;4.70;86.80;;;;;;2065208;28;20480;-81
2021/03/02 02:29:10;;;;;;;31.50;17.20;;;4.70;86.80;;;;;;2068662;28;20550;-81
2021/03/02 02:30:12;;;;;;;30.30;16.80;;;4.70;86.90;;;;;;2071116;28;20022;-80
2021/03/02 02:31:13;;;;;;;29.92;16.73;;;4.70;86.90;;;;;;2063686;28;20129;-80
2021/03/02 02:32:14;;;;;;;29.08;16.25;;;4.60;86.90;;;;;;2064844;28;20125;-81
2021/03/02 02:33:16;;;;;;;27.73;15.50;;;4.60;86.90;;;;;;2058678;28;20045;-80
2021/03/02 02:34:19;;;;;;;29.70;16.40;;;4.60;87.00;;;;;;2078340;28;20056;-80
2021/03/02 02:35:22;;;;;;;29.98;16.33;;;4.60;87.00;;;;;;2078334;28;20053;-81
2021/03/02 02:36:24;;;;;;;31.75;17.27;;;4.60;87.10;;;;;;2080864;28;20032;-81
2021/03/02 02:37:31;;;;;;;27.77;15.80;;;4.60;87.10;;;;;;2064770;28;20042;-81
2021/03/02 02:38:32;;;;;;;29.23;16.15;;;4.60;87.20;;;;;;2065279;28;20019;-80
2021/03/02 02:39:35;;;;;;;29.50;16.13;;;4.60;87.10;;;;;;2078962;28;20381;-80
2021/03/02 02:40:38;;;;;;;31.35;17.55;;;4.60;87.20;;;;;;2072386;28;20036;-81
2021/03/02 02:41:39;;;;;;;26.70;15.48;;;4.60;87.30;;;;;;2073551;28;20400;-81
2021/03/02 02:42:43;;;;;;;27.58;15.65;;;4.60;87.20;;;;;;2072539;28;20121;-81
2021/03/02 02:43:45;;;;;;;30.10;17.30;;;4.60;87.30;;;;;;2071309;28;20041;-81
2021/03/02 02:44:48;;;;;;;30.88;16.75;;;4.60;87.30;;;;;;2079492;28;20698;-81
2021/03/02 02:45:50;;;;;;;29.45;16.75;;;4.60;87.30;;;;;;2080685;28;20029;-81
2021/03/02 02:46:53;;;;;;;27.70;16.30;;;4.60;87.40;;;;;;2072093;28;20393;-80
2021/03/02 02:47:55;;;;;;;27.77;15.65;;;4.60;87.40;;;;;;2071971;28;20033;-80
2021/03/02 02:48:57;;;;;;;26.00;14.90;;;4.60;87.40;;;;;;2073133;28;20014;-81
2021/03/02 02:49:58;;;;;;;28.02;15.85;;;4.60;87.50;;;;;;2080362;28;20479;-80
2021/03/02 02:51:00;;;;;;;31.95;17.00;;;4.60;87.40;;;;;;2071099;28;20065;-81
2021/03/02 02:52:02;;;;;;;29.35;16.35;;;4.60;87.40;;;;;;2071130;28;20038;-81
2021/03/02 02:53:04;;;;;;;28.92;16.52;;;4.60;87.50;;;;;;2072619;28;20499;-81
2021/03/02 02:54:06;;;;;;;31.58;17.20;;;4.60;87.50;;;;;;2073121;28;20133;-81
2021/03/02 02:55:08;;;;;;;28.40;16.25;;;4.60;87.50;;;;;;2064142;28;20050;-81
2021/03/02 02:56:11;;;;;;;29.85;17.23;;;4.60;87.50;;;;;;2064019;28;20027;-81
2021/03/02 02:57:16;;;;;;;31.08;16.45;;;4.60;87.50;;;;;;2073278;28;20022;-80
2021/03/02 02:58:20;;;;;;;28.17;16.27;;;4.50;87.50;;;;;;2065094;28;20034;-81
2021/03/02 02:59:24;;;;;;;30.25;16.75;;;4.60;87.50;;;;;;2064853;28;20105;-80
2021/03/02 03:00:24;;;;;;;27.77;15.85;;;4.50;87.50;;;;;;2071663;28;20037;-80
2021/03/02 03:01:30;;;;;;;31.70;17.88;;;4.50;87.50;;;;;;2070142;28;20057;-81
2021/03/02 03:02:33;;;;;;;29.25;16.67;;;4.60;87.60;;;;;;2065067;28;20038;-81
2021/03/02 03:03:36;;;;;;;30.55;17.25;;;4.50;87.60;;;;;;2064893;28;20038;-81
2021/03/02 03:04:42;;;;;;;29.63;16.95;;;4.50;87.60;;;;;;2071549;28;20036;-81
2021/03/02 03:05:47;;;;;;;32.08;17.70;;;4.50;87.60;;;;;;2072852;28;20025;-81
2021/03/02 03:06:51;;;;;;;29.65;17.40;;;4.50;87.60;;;;;;2075735;28;20022;-81
2021/03/02 03:07:56;;;;;;;32.33;18.10;;;4.50;87.60;;;;;;2072919;28;20472;-81
2021/03/02 03:08:59;;;;;;;29.83;16.90;;;4.50;87.60;;;;;;2067684;28;20061;-81
2021/03/02 03:10:02;;;;;;;30.90;16.88;;;4.50;88.20;;;;;;2072656;28;20109;-80
2021/03/02 03:11:04;;;;;;;30.42;17.20;;;4.50;87.70;;;;;;2057817;28;20034;-81
2021/03/02 03:12:08;;;;;;;32.85;17.00;;;4.50;87.70;;;;;;2049007;28;20083;-81
2021/03/02 03:13:10;;;;;;;31.77;17.63;;;4.50;87.70;;;;;;2054569;28;20478;-81
2021/03/02 03:14:14;;;;;;;32.33;17.75;;;4.50;88.40;;;;;;2057527;28;20110;-81
2021/03/02 03:15:17;;;;;;;33.17;17.30;;;4.50;87.70;;;;;;2069722;28;20120;-81
2021/03/02 03:16:21;;;;;;;32.50;18.05;;;4.50;88.40;;;;;;2067616;28;20053;-81
2021/03/02 03:17:23;;;;;;;29.92;16.92;;;4.50;87.80;;;;;;2064477;28;20027;-81
2021/03/02 03:18:28;;;;;;;31.48;17.02;;;4.50;88.40;;;;;;2070757;28;20028;-81
2021/03/02 03:19:33;;;;;;;32.30;17.38;;;4.50;87.90;;;;;;2072557;28;20026;-81
2021/03/02 03:20:34;;;;;;;30.58;17.08;;;4.50;87.90;;;;;;2080421;28;20021;-81
2021/03/02 03:21:36;;;;;;;29.52;16.33;;;4.40;87.80;;;;;;2062900;28;20053;-81
2021/03/02 03:22:38;;;;;;;29.23;16.33;;;4.40;87.80;;;;;;2064163;28;20108;-81
2021/03/02 03:23:41;;;;;;;30.52;16.33;;;4.50;87.90;;;;;;2071361;28;20485;-81
2021/03/02 03:24:42;;;;;;;31.38;17.15;;;4.40;87.90;;;;;;2071887;28;20101;-80
2021/03/02 03:25:43;;;;;;;31.52;17.70;;;4.40;87.90;;;;;;2071715;28;20039;-81
2021/03/02 03:26:46;;;;;;;29.25;16.83;;;4.40;87.90;;;;;;2073462;28;20476;-80
2021/03/02 03:27:54;;;;;;;29.38;15.65;;;4.40;88.00;;;;;;2069536;28;20026;-81
2021/03/02 03:28:57;;;;;;;31.10;16.48;;;4.30;87.90;;;;;;2070873;28;20394;-80
2021/03/02 03:29:59;;;;;;;29.20;16.08;;;4.40;88.00;;;;;;2076220;28;20030;-80
2021/03/02 03:31:01;;;;;;;29.58;15.75;;;4.40;88.00;;;;;;2071764;28;20088;-81
2021/03/02 03:32:04;;;;;;;32.63;17.55;;;4.30;88.00;;;;;;2071702;28;20080;-81
2021/03/02 03:33:08;;;;;;;30.65;16.80;;;4.40;88.10;;;;;;2072634;28;20034;-81
2021/03/02 03:34:09;;;;;;;26.48;15.50;;;4.30;88.10;;;;;;2074005;28;20376;-81
2021/03/02 03:35:10;;;;;;;32.00;17.38;;;4.30;88.10;;;;;;2073027;28;20144;-81
2021/03/02 03:36:12;;;;;;;30.13;17.27;;;4.30;88.10;;;;;;2073909;28;20108;-80
2021/03/02 03:37:12;;;;;;;33.17;17.30;;;4.30;88.10;;;;;;2082140;28;20021;-81
2021/03/02 03:38:13;;;;;;;32.28;17.27;;;4.30;88.10;;;;;;2070131;28;20037;-80
2021/03/02 03:39:14;;;;;;;31.08;17.33;;;4.30;88.20;;;;;;2071231;28;20044;-81
2021/03/02 03:40:15;;;;;;;32.97;18.25;;;4.30;88.20;;;;;;2072048;28;20144;-81
2021/03/02 03:41:16;;;;;;;32.60;18.15;;;4.30;88.20;;;;;;2062927;28;20069;-81
2021/03/02 03:42:16;;;;;;;32.15;17.00;;;4.20;88.20;;;;;;2072265;28;20056;-81
2021/03/02 03:43:17;;;;;;;33.97;17.92;;;4.20;88.20;;;;;;2073697;28;20112;-80
2021/03/02 03:44:18;;;;;;;31.73;17.17;;;4.20;88.20;;;;;;2071221;28;20045;-80
2021/03/02 03:45:19;;;;;;;35.90;18.38;;;4.20;88.30;;;;;;2066813;28;20030;-81
2021/03/02 03:46:19;;;;;;;32.53;17.25;;;4.20;88.40;;;;;;2071755;28;20133;-81
2021/03/02 03:47:20;;;;;;;32.30;18.60;;;4.20;88.30;;;;;;2068229;28;20388;-81
2021/03/02 03:48:25;;;;;;;33.70;18.15;;;4.20;88.40;;;;;;2064690;28;20031;-81
2021/03/02 03:49:25;;;;;;;31.77;17.40;;;4.20;88.40;;;;;;2071046;28;20026;-81
2021/03/02 03:50:26;;;;;;;30.83;16.60;;;4.20;88.40;;;;;;2071764;28;20057;-81
2021/03/02 03:51:28;;;;;;;30.67;16.92;;;4.20;88.40;;;;;;2065007;28;20026;-81
2021/03/02 03:52:28;;;;;;;30.88;17.00;;;4.10;88.40;;;;;;2066858;28;20022;-81
2021/03/02 03:53:33;;;;;;;34.25;17.25;;;4.10;88.40;;;;;;2065513;28;20044;-81
2021/03/02 03:54:35;;;;;;;32.70;18.25;;;4.10;88.40;;;;;;2064312;28;20018;-81
2021/03/02 03:55:43;;;;;;;30.13;16.85;;;4.20;88.50;;;;;;2072597;28;20038;-81
2021/03/02 03:56:45;;;;;;;32.13;17.83;;;4.20;88.60;;;;;;2058853;28;20412;-81
2021/03/02 03:57:47;;;;;;;33.88;17.48;;;4.10;88.60;;;;;;2061036;28;20027;-80
2021/03/02 03:58:49;;;;;;;30.83;16.67;;;4.10;88.50;;;;;;2072307;28;20033;-81
2021/03/02 03:59:54;;;;;;;32.08;17.52;;;4.10;88.50;;;;;;2065101;28;20037;-81
2021/03/02 04:00:56;;;;;;;30.00;16.63;;;4.10;88.60;;;;;;2062996;28;20104;-81
2021/03/02 04:01:57;;;;;;;34.55;17.67;;;4.10;88.60;;;;;;2072367;28;20488;-81
2021/03/02 04:02:58;;;;;;;33.40;17.83;;;4.10;88.60;;;;;;2065608;28;20125;-81
2021/03/02 04:04:01;;;;;;;33.15;18.25;;;4.10;88.60;;;;;;2063273;28;20035;-81
2021/03/02 04:05:04;;;;;;;32.03;17.75;;;4.10;88.60;;;;;;2063823;28;20049;-82
2021/03/02 04:06:06;;;;;;;33.30;17.95;;;4.10;88.60;;;;;;2064001;28;20026;-81
2021/03/02 04:07:07;;;;;;;30.50;16.85;;;4.10;88.60;;;;;;2071952;28;20030;-81
2021/03/02 04:08:08;;;;;;;28.50;15.95;;;4.10;88.60;;;;;;2071387;28;20030;-81
2021/03/02 04:09:10;;;;;;;32.83;17.30;;;4.10;88.60;;;;;;2065511;28;20030;-81
2021/03/02 04:10:11;;;;;;;32.60;18.13;;;4.10;88.70;;;;;;2066238;28;20026;-81
2021/03/02 04:11:12;;;;;;;33.65;18.45;;;4.10;88.70;;;;;;2071687;28;20120;-80
2021/03/02 04:12:13;;;;;;;30.90;17.17;;;4.10;88.70;;;;;;2063953;28;20030;-80
2021/03/02 04:13:15;;;;;;;32.78;17.77;;;4.10;88.70;;;;;;2064198;28;20129;-80
2021/03/02 04:14:16;;;;;;;35.33;18.63;;;4.10;88.70;;;;;;2062546;28;20023;-81
2021/03/02 04:15:17;;;;;;;34.15;17.77;;;4.10;88.70;;;;;;2064018;28;20072;-80
2021/03/02 04:16:18;;;;;;;32.80;17.73;;;4.10;88.70;;;;;;2062646;28;20113;-80
2021/03/02 04:17:18;;;;;;;31.83;17.98;;;4.10;88.70;;;;;;2063979;28;20030;-81
2021/03/02 04:18:19;;;;;;;29.70;17.40;;;4.10;88.70;;;;;;2067681;28;20124;-81
2021/03/02 04:19:20;;;;;;;32.10;17.20;;;4.10;88.70;;;;;;2058742;28;20089;-81
2021/03/02 04:20:21;;;;;;;31.17;17.33;;;4.10;88.80;;;;;;2057938;28;20124;-81
2021/03/02 04:21:22;;;;;;;31.40;16.50;;;4.00;88.70;;;;;;2065720;28;20121;-81
2021/03/02 04:22:24;;;;;;;28.48;16.15;;;4.10;88.80;;;;;;2056193;28;20417;-81
2021/03/02 04:23:25;;;;;;;30.92;16.02;;;4.10;88.80;;;;;;2042599;28;20078;-80
2021/03/02 04:24:25;;;;;;;27.08;16.23;;;4.10;88.80;;;;;;2049248;28;20019;-81
2021/03/02 04:25:26;;;;;;;29.45;15.63;;;4.10;88.80;;;;;;2057121;28;20046;-81
2021/03/02 04:26:27;;;;;;;32.38;17.23;;;4.10;88.80;;;;;;2057021;28;20023;-80
2021/03/02 04:27:27;;;;;;;29.50;15.57;;;4.00;88.70;;;;;;2056190;28;20035;-80
2021/03/02 04:28:28;;;;;;;28.95;16.55;;;4.10;88.80;;;;;;2065881;28;20030;-80
2021/03/02 04:29:29;;;;;;;27.48;15.20;;;4.00;88.70;;;;;;2067687;28;20105;-80
2021/03/02 04:30:30;;;;;;;30.85;16.70;;;4.10;88.80;;;;;;2071801;28;20031;-81
2021/03/02 04:31:31;;;;;;;29.95;16.73;;;4.10;88.80;;;;;;2078086;28;20030;-80
2021/03/02 04:32:31;;;;;;;30.13;16.52;;;4.10;88.80;;;;;;2080299;28;20025;-80
2021/03/02 04:33:32;;;;;;;30.48;16.38;;;4.10;88.90;;;;;;2071563;28;20049;-81
2021/03/02 04:34:33;;;;;;;30.55;16.00;;;4.10;88.90;;;;;;2071631;28;20050;-82
2021/03/02 04:35:34;;;;;;;29.88;16.63;;;4.10;88.80;;;;;;2071054;28;20243;-81
2021/03/02 04:36:35;;;;;;;29.13;16.05;;;4.10;88.80;;;;;;2057549;28;20050;-81
2021/03/02 04:37:37;;;;;;;31.33;16.67;;;4.10;88.80;;;;;;2065067;28;20058;-80
2021/03/02 04:38:38;;;;;;;29.80;15.70;;;4.10;88.90;;;;;;2069864;28;20034;-81
2021/03/02 04:39:38;;;;;;;28.88;15.93;;;4.10;88.90;;;;;;2076518;28;20029;-80
2021/03/02 04:40:39;;;;;;;29.90;17.08;;;4.10;88.90;;;;;;2079956;28;20026;-82
2021/03/02 04:41:39;;;;;;;30.48;16.02;;;4.10;88.90;;;;;;2070115;28;20074;-81
2021/03/02 04:42:41;;;;;;;31.02;16.45;;;4.00;88.80;;;;;;2066716;28;20574;-81
2021/03/02 04:43:42;;;;;;;28.85;15.27;;;4.10;88.90;;;;;;2063011;28;20053;-79
2021/03/02 04:44:43;;;;;;;28.40;15.57;;;4.10;88.90;;;;;;2069118;28;20528;-81
2021/03/02 04:45:43;;;;;;;30.20;16.70;;;4.10;88.90;;;;;;2074515;28;20033;-80
2021/03/02 04:46:44;;;;;;;27.10;15.70;;;4.10;88.90;;;;;;2056157;28;20053;-80
2021/03/02 04:47:46;;;;;;;26.23;15.18;;;4.00;88.90;;;;;;2041829;29;20138;-80
2021/03/02 04:48:47;;;;;;;28.33;15.80;;;4.00;88.90;;;;;;2065687;28;20026;-80
2021/03/02 04:49:48;;;;;;;30.02;15.65;;;4.00;88.90;;;;;;2056664;28;20027;-80
2021/03/02 04:50:48;;;;;;;30.98;16.08;;;4.10;89.00;;;;;;2064564;28;20368;-80
2021/03/02 04:51:49;;;;;;;29.55;16.42;;;4.10;88.90;;;;;;2065373;28;20493;-80
2021/03/02 04:52:50;;;;;;;29.48;15.93;;;4.10;89.50;;;;;;2064402;28;20133;-80
2021/03/02 04:53:51;;;;;;;28.83;16.27;;;4.10;88.90;;;;;;2064977;28;20168;-81
2021/03/02 04:54:51;;;;;;;28.33;16.17;;;4.10;88.90;;;;;;2056825;28;20031;-80
2021/03/02 04:55:52;;;;;;;28.27;15.45;;;4.10;88.90;;;;;;2054591;28;20029;-80
2021/03/02 04:56:53;;;;;;;27.70;15.85;;;4.10;88.90;;;;;;2073244;28;20062;-80
2021/03/02 04:57:54;;;;;;;26.80;15.05;;;4.00;88.90;;;;;;2074708;28;20037;-80
2021/03/02 04:58:54;;;;;;;30.83;16.65;;;4.10;88.90;;;;;;2074227;28;20109;-80
2021/03/02 04:59:55;;;;;;;30.15;16.85;;;4.00;88.90;;;;;;2064622;28;20030;-80
2021/03/02 05:00:56;;;;;;;30.35;16.70;;;4.00;88.90;;;;;;2076209;28;20026;-80
2021/03/02 05:01:56;;;;;;;30.35;16.08;;;4.10;89.00;;;;;;2078210;28;20022;-80
2021/03/02 05:02:57;;;;;;;29.52;16.20;;;4.10;88.90;;;;;;2086763;28;20018;-79
2021/03/02 05:03:57;;;;;;;29.20;16.95;;;4.10;88.90;;;;;;2078238;28;20034;-80
2021/03/02 05:04:58;;;;;;;30.50;17.13;;;4.10;88.90;;;;;;2062948;28;20031;-79
2021/03/02 05:05:59;;;;;;;28.25;16.02;;;4.10;88.90;;;;;;2072448;28;20037;-80
2021/03/02 05:06:59;;;;;;;29.00;15.85;;;4.00;88.80;;;;;;2081686;28;20021;-80
2021/03/02 05:08:00;;;;;;;30.27;16.73;;;4.10;88.90;;;;;;2080292;28;20030;-80
2021/03/02 05:09:01;;;;;;;29.20;15.70;;;4.10;88.90;;;;;;2073930;28;20033;-80
2021/03/02 05:10:02;;;;;;;27.92;15.73;;;4.10;88.90;;;;;;2057043;28;20034;-80
2021/03/02 05:11:03;;;;;;;31.75;17.00;;;4.10;89.00;;;;;;2064659;28;20166;-80
2021/03/02 05:12:04;;;;;;;31.02;16.75;;;4.00;88.90;;;;;;2062295;28;20527;-80
2021/03/02 05:13:04;;;;;;;28.90;15.93;;;4.10;88.90;;;;;;2063679;28;20043;-79
2021/03/02 05:14:05;;;;;;;30.13;16.77;;;4.10;88.90;;;;;;2071631;28;20030;-80
2021/03/02 05:15:06;;;;;;;30.33;15.93;;;4.00;88.80;;;;;;2061906;28;20026;-80
2021/03/02 05:16:08;;;;;;;31.50;16.67;;;4.00;88.90;;;;;;2075895;28;20121;-80
2021/03/02 05:17:09;;;;;;;26.92;15.25;;;4.00;88.90;;;;;;2081390;28;20099;-80
2021/03/02 05:18:10;;;;;;;28.95;16.15;;;4.00;88.90;;;;;;2081842;28;20120;-80
2021/03/02 05:19:10;;;;;;;29.73;16.08;;;4.10;88.90;;;;;;2080364;28;20033;-80
2021/03/02 05:20:11;;;;;;;32.05;16.48;;;4.00;88.90;;;;;;2068316;28;20121;-80